sensor_id;sensor_type;location;lat;lon;timestamp;temperature;humidity
25871;DHT22;13689;48.590;7.752;2023-02-15T00:00:42;3.60;93.20
25871;DHT22;13689;48.590;7.752;2023-02-15T00:03:07;3.60;93.50
25871;DHT22;13689;48.590;7.752;2023-02-15T00:05:33;3.60;93.60
25871;DHT22;13689;48.590;7.752;2023-02-15T00:07:58;3.60;93.40
25871;DHT22;13689;48.590;7.752;2023-02-15T00:10:24;3.50;93.30
25871;DHT22;13689;48.590;7.752;2023-02-15T00:12:50;3.50;93.30
25871;DHT22;13689;48.590;7.752;2023-02-15T00:15:15;3.40;93.40
25871;DHT22;13689;48.590;7.752;2023-02-15T00:17:41;3.40;93.80
25871;DHT22;13689;48.590;7.752;2023-02-15T00:20:07;3.50;93.90
25871;DHT22;13689;48.590;7.752;2023-02-15T00:22:33;3.60;93.90
25871;DHT22;13689;48.590;7.752;2023-02-15T00:24:58;3.60;93.90
25871;DHT22;13689;48.590;7.752;2023-02-15T00:27:24;3.60;93.80
25871;DHT22;13689;48.590;7.752;2023-02-15T00:29:49;3.60;93.80
25871;DHT22;13689;48.590;7.752;2023-02-15T00:32:15;3.60;93.80
25871;DHT22;13689;48.590;7.752;2023-02-15T00:34:41;3.70;93.80
25871;DHT22;13689;48.590;7.752;2023-02-15T00:37:06;3.70;93.70
25871;DHT22;13689;48.590;7.752;2023-02-15T00:39:32;3.70;93.60
25871;DHT22;13689;48.590;7.752;2023-02-15T00:42:04;3.70;93.40
25871;DHT22;13689;48.590;7.752;2023-02-15T00:44:30;3.60;93.40
25871;DHT22;13689;48.590;7.752;2023-02-15T00:46:55;3.60;93.50
25871;DHT22;13689;48.590;7.752;2023-02-15T00:49:21;3.60;93.70
25871;DHT22;13689;48.590;7.752;2023-02-15T00:51:47;3.60;93.60
25871;DHT22;13689;48.590;7.752;2023-02-15T00:54:12;3.60;93.30
25871;DHT22;13689;48.590;7.752;2023-02-15T00:56:38;3.40;93.20
25871;DHT22;13689;48.590;7.752;2023-02-15T00:59:03;3.30;93.10
25871;DHT22;13689;48.590;7.752;2023-02-15T01:01:29;3.30;93.50
25871;DHT22;13689;48.590;7.752;2023-02-15T01:03:55;3.40;93.70
25871;DHT22;13689;48.590;7.752;2023-02-15T01:06:21;3.40;93.60
25871;DHT22;13689;48.590;7.752;2023-02-15T01:08:47;3.30;93.50
25871;DHT22;13689;48.590;7.752;2023-02-15T01:11:15;3.30;93.40
25871;DHT22;13689;48.590;7.752;2023-02-15T01:13:47;3.10;93.20
25871;DHT22;13689;48.590;7.752;2023-02-15T01:16:13;3.10;93.50
25871;DHT22;13689;48.590;7.752;2023-02-15T01:18:39;3.10;93.90
25871;DHT22;13689;48.590;7.752;2023-02-15T01:21:13;3.20;94.20
25871;DHT22;13689;48.590;7.752;2023-02-15T01:23:39;3.20;94.20
25871;DHT22;13689;48.590;7.752;2023-02-15T01:26:05;3.30;94.10
25871;DHT22;13689;48.590;7.752;2023-02-15T01:28:31;3.40;94.10
25871;DHT22;13689;48.590;7.752;2023-02-15T01:30:57;3.40;93.90
25871;DHT22;13689;48.590;7.752;2023-02-15T01:33:24;3.40;93.60
25871;DHT22;13689;48.590;7.752;2023-02-15T01:35:56;3.20;92.90
25871;DHT22;13689;48.590;7.752;2023-02-15T01:38:22;3.20;93.40
25871;DHT22;13689;48.590;7.752;2023-02-15T01:40:51;3.20;93.60
25871;DHT22;13689;48.590;7.752;2023-02-15T01:43:18;3.20;93.90
25871;DHT22;13689;48.590;7.752;2023-02-15T01:45:45;3.30;94.00
25871;DHT22;13689;48.590;7.752;2023-02-15T01:48:19;3.30;93.90
25871;DHT22;13689;48.590;7.752;2023-02-15T01:51:06;3.30;93.70
25871;DHT22;13689;48.590;7.752;2023-02-15T01:53:37;3.40;93.80
25871;DHT22;13689;48.590;7.752;2023-02-15T01:56:34;3.40;93.70
25871;DHT22;13689;48.590;7.752;2023-02-15T01:59:06;3.40;93.70
25871;DHT22;13689;48.590;7.752;2023-02-15T02:01:33;3.40;93.60
25871;DHT22;13689;48.590;7.752;2023-02-15T02:06:32;3.40;93.60
25871;DHT22;13689;48.590;7.752;2023-02-15T02:08:58;3.40;93.60
25871;DHT22;13689;48.590;7.752;2023-02-15T02:11:24;3.40;93.60
25871;DHT22;13689;48.590;7.752;2023-02-15T02:13:51;3.40;93.50
25871;DHT22;13689;48.590;7.752;2023-02-15T02:16:53;3.40;93.50
25871;DHT22;13689;48.590;7.752;2023-02-15T02:19:53;3.40;93.50
25871;DHT22;13689;48.590;7.752;2023-02-15T02:25:38;3.40;93.50
25871;DHT22;13689;48.590;7.752;2023-02-15T02:31:14;3.50;93.40
25871;DHT22;13689;48.590;7.752;2023-02-15T02:36:34;3.40;93.30
25871;DHT22;13689;48.590;7.752;2023-02-15T02:42:09;3.20;93.10
25871;DHT22;13689;48.590;7.752;2023-02-15T02:44:47;3.20;93.20
25871;DHT22;13689;48.590;7.752;2023-02-15T02:47:19;3.20;93.20
25871;DHT22;13689;48.590;7.752;2023-02-15T02:49:46;3.00;92.90
25871;DHT22;13689;48.590;7.752;2023-02-15T02:52:35;2.90;92.90
25871;DHT22;13689;48.590;7.752;2023-02-15T02:55:04;2.70;93.10
25871;DHT22;13689;48.590;7.752;2023-02-15T02:57:32;2.80;93.60
25871;DHT22;13689;48.590;7.752;2023-02-15T02:59:59;2.90;94.10
25871;DHT22;13689;48.590;7.752;2023-02-15T03:02:32;3.00;94.10
25871;DHT22;13689;48.590;7.752;2023-02-15T03:05:07;3.00;93.90
25871;DHT22;13689;48.590;7.752;2023-02-15T03:07:35;3.10;93.90
25871;DHT22;13689;48.590;7.752;2023-02-15T03:10:04;3.20;93.90
25871;DHT22;13689;48.590;7.752;2023-02-15T03:12:36;3.20;93.60
25871;DHT22;13689;48.590;7.752;2023-02-15T03:15:11;3.10;93.30
25871;DHT22;13689;48.590;7.752;2023-02-15T03:17:45;3.10;93.40
25871;DHT22;13689;48.590;7.752;2023-02-15T03:20:20;3.10;93.70
25871;DHT22;13689;48.590;7.752;2023-02-15T03:22:55;3.20;93.80
25871;DHT22;13689;48.590;7.752;2023-02-15T03:25:42;3.20;93.70
25871;DHT22;13689;48.590;7.752;2023-02-15T03:28:15;3.20;93.40
25871;DHT22;13689;48.590;7.752;2023-02-15T03:30:46;3.20;93.40
25871;DHT22;13689;48.590;7.752;2023-02-15T03:33:15;3.10;93.40
25871;DHT22;13689;48.590;7.752;2023-02-15T03:38:31;3.10;93.50
25871;DHT22;13689;48.590;7.752;2023-02-15T03:40:59;3.20;93.60
25871;DHT22;13689;48.590;7.752;2023-02-15T03:43:44;3.20;93.50
25871;DHT22;13689;48.590;7.752;2023-02-15T03:48:51;3.20;93.90
25871;DHT22;13689;48.590;7.752;2023-02-15T03:51:20;3.20;93.50
25871;DHT22;13689;48.590;7.752;2023-02-15T03:54:04;3.20;93.50
25871;DHT22;13689;48.590;7.752;2023-02-15T03:56:30;3.20;93.30
25871;DHT22;13689;48.590;7.752;2023-02-15T03:58:56;3.20;93.40
25871;DHT22;13689;48.590;7.752;2023-02-15T04:02:08;3.20;93.40
25871;DHT22;13689;48.590;7.752;2023-02-15T04:04:40;3.10;93.20
25871;DHT22;13689;48.590;7.752;2023-02-15T04:07:08;3.10;93.10
25871;DHT22;13689;48.590;7.752;2023-02-15T04:09:34;3.10;93.20
25871;DHT22;13689;48.590;7.752;2023-02-15T04:12:19;3.10;93.20
25871;DHT22;13689;48.590;7.752;2023-02-15T04:14:44;3.10;93.10
25871;DHT22;13689;48.590;7.752;2023-02-15T04:17:29;3.10;93.20
25871;DHT22;13689;48.590;7.752;2023-02-15T04:19:54;3.10;93.20
25871;DHT22;13689;48.590;7.752;2023-02-15T04:22:38;3.10;93.10
25871;DHT22;13689;48.590;7.752;2023-02-15T04:25:22;3.10;93.10
25871;DHT22;13689;48.590;7.752;2023-02-15T04:27:53;3.10;93.00
25871;DHT22;13689;48.590;7.752;2023-02-15T04:30:22;2.90;92.50
25871;DHT22;13689;48.590;7.752;2023-02-15T04:32:48;2.90;92.70
25871;DHT22;13689;48.590;7.752;2023-02-15T04:35:14;2.90;93.10
25871;DHT22;13689;48.590;7.752;2023-02-15T04:37:41;3.00;93.20
25871;DHT22;13689;48.590;7.752;2023-02-15T04:40:09;3.00;93.00
25871;DHT22;13689;48.590;7.752;2023-02-15T04:42:34;2.90;92.90
25871;DHT22;13689;48.590;7.752;2023-02-15T04:45:00;3.00;93.10
25871;DHT22;13689;48.590;7.752;2023-02-15T04:47:26;3.00;93.10
25871;DHT22;13689;48.590;7.752;2023-02-15T04:49:51;3.00;93.00
25871;DHT22;13689;48.590;7.752;2023-02-15T04:52:17;3.00;93.10
25871;DHT22;13689;48.590;7.752;2023-02-15T04:54:43;3.00;93.00
25871;DHT22;13689;48.590;7.752;2023-02-15T04:57:09;3.00;93.00
25871;DHT22;13689;48.590;7.752;2023-02-15T04:59:35;3.10;93.00
25871;DHT22;13689;48.590;7.752;2023-02-15T05:02:01;3.00;92.90
25871;DHT22;13689;48.590;7.752;2023-02-15T05:04:26;3.00;92.90
25871;DHT22;13689;48.590;7.752;2023-02-15T05:06:52;3.00;92.90
25871;DHT22;13689;48.590;7.752;2023-02-15T05:09:17;3.10;93.00
25871;DHT22;13689;48.590;7.752;2023-02-15T05:11:43;3.10;93.00
25871;DHT22;13689;48.590;7.752;2023-02-15T05:14:09;3.10;92.90
25871;DHT22;13689;48.590;7.752;2023-02-15T05:16:34;3.10;92.90
25871;DHT22;13689;48.590;7.752;2023-02-15T05:19:00;3.10;92.90
25871;DHT22;13689;48.590;7.752;2023-02-15T05:21:26;3.10;92.80
25871;DHT22;13689;48.590;7.752;2023-02-15T05:23:52;3.10;92.80
25871;DHT22;13689;48.590;7.752;2023-02-15T05:26:21;3.10;92.80
25871;DHT22;13689;48.590;7.752;2023-02-15T05:29:06;3.10;92.80
25871;DHT22;13689;48.590;7.752;2023-02-15T05:31:32;3.10;92.80
25871;DHT22;13689;48.590;7.752;2023-02-15T05:33:58;3.10;92.80
25871;DHT22;13689;48.590;7.752;2023-02-15T05:36:24;3.10;92.70
25871;DHT22;13689;48.590;7.752;2023-02-15T05:38:49;3.10;92.80
25871;DHT22;13689;48.590;7.752;2023-02-15T05:41:15;3.10;92.80
25871;DHT22;13689;48.590;7.752;2023-02-15T05:43:41;3.10;92.80
25871;DHT22;13689;48.590;7.752;2023-02-15T05:46:07;3.10;92.80
25871;DHT22;13689;48.590;7.752;2023-02-15T05:48:33;3.10;92.70
25871;DHT22;13689;48.590;7.752;2023-02-15T05:51:07;3.10;92.80
25871;DHT22;13689;48.590;7.752;2023-02-15T05:53:35;3.10;92.80
25871;DHT22;13689;48.590;7.752;2023-02-15T05:56:02;3.20;92.90
25871;DHT22;13689;48.590;7.752;2023-02-15T05:58:36;3.10;92.80
25871;DHT22;13689;48.590;7.752;2023-02-15T06:03:38;3.10;92.70
25871;DHT22;13689;48.590;7.752;2023-02-15T06:06:04;3.10;92.60
25871;DHT22;13689;48.590;7.752;2023-02-15T06:08:31;3.10;92.70
25871;DHT22;13689;48.590;7.752;2023-02-15T06:10:57;3.10;92.80
25871;DHT22;13689;48.590;7.752;2023-02-15T06:13:23;3.10;92.90
25871;DHT22;13689;48.590;7.752;2023-02-15T06:15:48;3.10;92.80
25871;DHT22;13689;48.590;7.752;2023-02-15T06:18:14;3.10;92.80
25871;DHT22;13689;48.590;7.752;2023-02-15T06:20:39;3.10;92.80
25871;DHT22;13689;48.590;7.752;2023-02-15T06:23:05;3.10;92.80
25871;DHT22;13689;48.590;7.752;2023-02-15T06:25:31;3.10;92.80
25871;DHT22;13689;48.590;7.752;2023-02-15T06:27:56;3.10;92.70
25871;DHT22;13689;48.590;7.752;2023-02-15T06:30:22;3.10;92.70
25871;DHT22;13689;48.590;7.752;2023-02-15T06:32:47;3.10;92.80
25871;DHT22;13689;48.590;7.752;2023-02-15T06:35:13;3.10;92.80
25871;DHT22;13689;48.590;7.752;2023-02-15T06:37:39;3.10;92.80
25871;DHT22;13689;48.590;7.752;2023-02-15T06:40:05;3.10;92.90
25871;DHT22;13689;48.590;7.752;2023-02-15T06:42:31;3.10;92.90
25871;DHT22;13689;48.590;7.752;2023-02-15T06:44:57;3.10;92.80
25871;DHT22;13689;48.590;7.752;2023-02-15T06:47:22;3.10;92.80
25871;DHT22;13689;48.590;7.752;2023-02-15T06:49:48;3.10;92.80
25871;DHT22;13689;48.590;7.752;2023-02-15T06:52:13;3.10;92.80
25871;DHT22;13689;48.590;7.752;2023-02-15T06:54:39;3.10;92.90
25871;DHT22;13689;48.590;7.752;2023-02-15T06:57:04;3.00;92.80
25871;DHT22;13689;48.590;7.752;2023-02-15T06:59:30;3.00;92.80
25871;DHT22;13689;48.590;7.752;2023-02-15T07:01:56;3.00;92.70
25871;DHT22;13689;48.590;7.752;2023-02-15T07:04:21;3.00;92.80
25871;DHT22;13689;48.590;7.752;2023-02-15T07:06:47;3.10;92.90
25871;DHT22;13689;48.590;7.752;2023-02-15T07:09:12;3.10;92.90
25871;DHT22;13689;48.590;7.752;2023-02-15T07:11:38;3.10;92.80
25871;DHT22;13689;48.590;7.752;2023-02-15T07:14:22;3.10;92.80
25871;DHT22;13689;48.590;7.752;2023-02-15T07:16:48;3.10;92.70
25871;DHT22;13689;48.590;7.752;2023-02-15T07:19:14;3.00;92.70
25871;DHT22;13689;48.590;7.752;2023-02-15T07:21:39;3.00;92.70
25871;DHT22;13689;48.590;7.752;2023-02-15T07:24:05;3.00;92.80
25871;DHT22;13689;48.590;7.752;2023-02-15T07:26:31;3.10;92.80
25871;DHT22;13689;48.590;7.752;2023-02-15T07:28:57;3.00;92.60
25871;DHT22;13689;48.590;7.752;2023-02-15T07:31:23;3.00;92.60
25871;DHT22;13689;48.590;7.752;2023-02-15T07:33:48;3.00;92.80
25871;DHT22;13689;48.590;7.752;2023-02-15T07:36:14;3.10;92.90
25871;DHT22;13689;48.590;7.752;2023-02-15T07:38:41;3.10;92.80
25871;DHT22;13689;48.590;7.752;2023-02-15T07:41:09;3.20;92.80
25871;DHT22;13689;48.590;7.752;2023-02-15T07:43:37;3.20;92.70
25871;DHT22;13689;48.590;7.752;2023-02-15T07:46:09;3.20;92.70
25871;DHT22;13689;48.590;7.752;2023-02-15T07:48:36;3.20;92.70
25871;DHT22;13689;48.590;7.752;2023-02-15T07:51:03;3.20;92.70
25871;DHT22;13689;48.590;7.752;2023-02-15T07:53:29;3.10;92.40
25871;DHT22;13689;48.590;7.752;2023-02-15T07:56:02;3.10;92.50
25871;DHT22;13689;48.590;7.752;2023-02-15T07:58:28;3.10;92.60
25871;DHT22;13689;48.590;7.752;2023-02-15T08:01:16;3.20;92.70
25871;DHT22;13689;48.590;7.752;2023-02-15T08:03:41;3.20;92.60
25871;DHT22;13689;48.590;7.752;2023-02-15T08:06:07;3.20;92.50
25871;DHT22;13689;48.590;7.752;2023-02-15T08:08:34;3.20;92.40
25871;DHT22;13689;48.590;7.752;2023-02-15T08:13:54;3.20;92.50
25871;DHT22;13689;48.590;7.752;2023-02-15T08:16:32;3.20;92.50
25871;DHT22;13689;48.590;7.752;2023-02-15T08:19:00;3.20;92.40
25871;DHT22;13689;48.590;7.752;2023-02-15T08:21:28;3.20;92.30
25871;DHT22;13689;48.590;7.752;2023-02-15T08:23:55;3.20;92.00
25871;DHT22;13689;48.590;7.752;2023-02-15T08:26:22;3.10;92.20
25871;DHT22;13689;48.590;7.752;2023-02-15T08:28:48;3.20;92.40
25871;DHT22;13689;48.590;7.752;2023-02-15T08:31:15;3.20;92.50
25871;DHT22;13689;48.590;7.752;2023-02-15T08:33:42;3.30;92.40
25871;DHT22;13689;48.590;7.752;2023-02-15T08:36:10;3.30;92.30
25871;DHT22;13689;48.590;7.752;2023-02-15T08:38:36;3.30;92.30
25871;DHT22;13689;48.590;7.752;2023-02-15T08:41:19;3.30;92.30
25871;DHT22;13689;48.590;7.752;2023-02-15T08:43:47;3.40;92.30
25871;DHT22;13689;48.590;7.752;2023-02-15T08:46:14;3.40;92.20
25871;DHT22;13689;48.590;7.752;2023-02-15T08:48:40;3.40;92.20
25871;DHT22;13689;48.590;7.752;2023-02-15T08:51:11;3.50;92.20
25871;DHT22;13689;48.590;7.752;2023-02-15T08:53:39;3.60;92.20
25871;DHT22;13689;48.590;7.752;2023-02-15T08:56:06;3.70;92.10
25871;DHT22;13689;48.590;7.752;2023-02-15T08:58:32;3.70;91.90
25871;DHT22;13689;48.590;7.752;2023-02-15T09:00:58;3.70;91.90
25871;DHT22;13689;48.590;7.752;2023-02-15T09:03:24;3.70;91.90
25871;DHT22;13689;48.590;7.752;2023-02-15T09:05:49;3.70;91.90
25871;DHT22;13689;48.590;7.752;2023-02-15T09:08:15;3.70;91.90
25871;DHT22;13689;48.590;7.752;2023-02-15T09:10:41;3.70;92.00
25871;DHT22;13689;48.590;7.752;2023-02-15T09:13:07;3.80;92.00
25871;DHT22;13689;48.590;7.752;2023-02-15T09:15:33;3.80;91.90
25871;DHT22;13689;48.590;7.752;2023-02-15T09:17:58;3.80;91.80
25871;DHT22;13689;48.590;7.752;2023-02-15T09:20:27;3.80;91.80
25871;DHT22;13689;48.590;7.752;2023-02-15T09:22:53;3.80;91.80
25871;DHT22;13689;48.590;7.752;2023-02-15T09:25:19;3.90;91.80
25871;DHT22;13689;48.590;7.752;2023-02-15T09:27:45;3.90;91.70
25871;DHT22;13689;48.590;7.752;2023-02-15T09:30:11;3.90;91.70
25871;DHT22;13689;48.590;7.752;2023-02-15T09:32:37;4.00;91.70
25871;DHT22;13689;48.590;7.752;2023-02-15T09:35:03;3.90;91.60
25871;DHT22;13689;48.590;7.752;2023-02-15T09:37:30;4.00;91.70
25871;DHT22;13689;48.590;7.752;2023-02-15T09:39:57;4.00;91.70
25871;DHT22;13689;48.590;7.752;2023-02-15T09:43:05;4.10;91.70
25871;DHT22;13689;48.590;7.752;2023-02-15T09:45:42;4.10;91.60
25871;DHT22;13689;48.590;7.752;2023-02-15T09:56:14;4.30;91.30
25871;DHT22;13689;48.590;7.752;2023-02-15T10:04:19;4.40;91.00
25871;DHT22;13689;48.590;7.752;2023-02-15T10:10:24;4.50;91.10
25871;DHT22;13689;48.590;7.752;2023-02-15T10:13:05;4.50;91.00
25871;DHT22;13689;48.590;7.752;2023-02-15T10:26:44;4.80;90.90
25871;DHT22;13689;48.590;7.752;2023-02-15T10:29:38;4.80;90.70
25871;DHT22;13689;48.590;7.752;2023-02-15T10:32:11;4.80;90.60
25871;DHT22;13689;48.590;7.752;2023-02-15T10:46:04;5.00;90.40
25871;DHT22;13689;48.590;7.752;2023-02-15T10:51:02;5.20;90.20
25871;DHT22;13689;48.590;7.752;2023-02-15T10:56:23;5.30;90.10
25871;DHT22;13689;48.590;7.752;2023-02-15T11:05:39;5.30;89.40
25871;DHT22;13689;48.590;7.752;2023-02-15T11:08:10;5.40;89.80
25871;DHT22;13689;48.590;7.752;2023-02-15T11:10:43;5.50;89.40
25871;DHT22;13689;48.590;7.752;2023-02-15T11:13:16;5.50;88.90
25871;DHT22;13689;48.590;7.752;2023-02-15T11:15:51;5.60;89.20
25871;DHT22;13689;48.590;7.752;2023-02-15T11:23:25;5.60;88.70
25871;DHT22;13689;48.590;7.752;2023-02-15T11:26:00;5.70;88.80
25871;DHT22;13689;48.590;7.752;2023-02-15T11:28:52;5.70;88.00
25871;DHT22;13689;48.590;7.752;2023-02-15T11:31:22;5.80;88.40
25871;DHT22;13689;48.590;7.752;2023-02-15T11:33:52;5.80;88.10
25871;DHT22;13689;48.590;7.752;2023-02-15T11:36:24;5.90;87.80
25871;DHT22;13689;48.590;7.752;2023-02-15T11:38:56;5.80;87.00
25871;DHT22;13689;48.590;7.752;2023-02-15T11:41:27;5.70;87.00
25871;DHT22;13689;48.590;7.752;2023-02-15T11:44:13;5.60;87.00
25871;DHT22;13689;48.590;7.752;2023-02-15T11:46:41;5.50;86.90
25871;DHT22;13689;48.590;7.752;2023-02-15T11:49:31;5.20;86.30
25871;DHT22;13689;48.590;7.752;2023-02-15T11:51:59;5.20;87.00
25871;DHT22;13689;48.590;7.752;2023-02-15T11:54:27;5.10;86.90
25871;DHT22;13689;48.590;7.752;2023-02-15T11:56:56;5.20;88.00
25871;DHT22;13689;48.590;7.752;2023-02-15T11:59:31;5.20;86.40
25871;DHT22;13689;48.590;7.752;2023-02-15T12:01:58;5.30;86.60
25871;DHT22;13689;48.590;7.752;2023-02-15T12:04:33;5.40;87.10
25871;DHT22;13689;48.590;7.752;2023-02-15T12:10:04;5.50;86.90
25871;DHT22;13689;48.590;7.752;2023-02-15T12:12:37;5.60;86.50
25871;DHT22;13689;48.590;7.752;2023-02-15T12:15:08;5.60;86.40
25871;DHT22;13689;48.590;7.752;2023-02-15T12:17:34;5.60;85.80
25871;DHT22;13689;48.590;7.752;2023-02-15T12:22:38;5.60;86.10
25871;DHT22;13689;48.590;7.752;2023-02-15T12:27:54;5.60;85.90
25871;DHT22;13689;48.590;7.752;2023-02-15T12:30:34;5.60;85.80
25871;DHT22;13689;48.590;7.752;2023-02-15T12:33:41;5.60;85.80
25871;DHT22;13689;48.590;7.752;2023-02-15T12:36:32;5.60;86.10
25871;DHT22;13689;48.590;7.752;2023-02-15T12:41:44;5.40;85.60
25871;DHT22;13689;48.590;7.752;2023-02-15T12:44:24;5.40;85.90
25871;DHT22;13689;48.590;7.752;2023-02-15T12:49:35;5.40;86.20
25871;DHT22;13689;48.590;7.752;2023-02-15T12:52:03;5.30;86.00
25871;DHT22;13689;48.590;7.752;2023-02-15T12:54:41;5.40;86.00
25871;DHT22;13689;48.590;7.752;2023-02-15T12:57:24;5.40;85.70
25871;DHT22;13689;48.590;7.752;2023-02-15T13:00:03;5.40;85.70
25871;DHT22;13689;48.590;7.752;2023-02-15T13:07:39;5.30;85.60
25871;DHT22;13689;48.590;7.752;2023-02-15T13:10:37;5.30;85.60
25871;DHT22;13689;48.590;7.752;2023-02-15T13:13:16;5.30;85.50
25871;DHT22;13689;48.590;7.752;2023-02-15T13:15:46;5.30;85.80
25871;DHT22;13689;48.590;7.752;2023-02-15T13:18:16;5.30;86.00
25871;DHT22;13689;48.590;7.752;2023-02-15T13:20:42;5.40;86.00
25871;DHT22;13689;48.590;7.752;2023-02-15T13:23:20;5.40;85.90
25871;DHT22;13689;48.590;7.752;2023-02-15T13:25:48;5.40;86.10
25871;DHT22;13689;48.590;7.752;2023-02-15T13:28:17;5.50;86.00
25871;DHT22;13689;48.590;7.752;2023-02-15T13:30:46;5.50;85.90
25871;DHT22;13689;48.590;7.752;2023-02-15T13:33:31;5.50;85.90
25871;DHT22;13689;48.590;7.752;2023-02-15T13:36:04;5.60;85.90
25871;DHT22;13689;48.590;7.752;2023-02-15T13:38:55;5.60;85.80
25871;DHT22;13689;48.590;7.752;2023-02-15T13:41:33;5.60;85.50
25871;DHT22;13689;48.590;7.752;2023-02-15T13:47:26;5.60;85.50
25871;DHT22;13689;48.590;7.752;2023-02-15T14:06:43;5.60;86.40
25871;DHT22;13689;48.590;7.752;2023-02-15T14:17:08;5.70;86.30
25871;DHT22;13689;48.590;7.752;2023-02-15T14:19:44;5.70;86.30
25871;DHT22;13689;48.590;7.752;2023-02-15T14:30:24;5.70;86.40
25871;DHT22;13689;48.590;7.752;2023-02-15T14:32:59;5.70;86.60
25871;DHT22;13689;48.590;7.752;2023-02-15T14:35:28;5.70;86.60
25871;DHT22;13689;48.590;7.752;2023-02-15T14:41:29;5.50;86.90
25871;DHT22;13689;48.590;7.752;2023-02-15T14:49:14;5.60;87.30
25871;DHT22;13689;48.590;7.752;2023-02-15T15:02:19;5.60;86.80
25871;DHT22;13689;48.590;7.752;2023-02-15T15:12:44;5.40;87.90
25871;DHT22;13689;48.590;7.752;2023-02-15T15:18:09;5.20;88.10
25871;DHT22;13689;48.590;7.752;2023-02-15T15:25:48;5.10;89.60
25871;DHT22;13689;48.590;7.752;2023-02-15T15:40:00;5.10;89.40
25871;DHT22;13689;48.590;7.752;2023-02-15T15:50:29;5.00;89.70
25871;DHT22;13689;48.590;7.752;2023-02-15T15:52:59;5.00;89.50
25871;DHT22;13689;48.590;7.752;2023-02-15T15:55:27;5.00;89.70
25871;DHT22;13689;48.590;7.752;2023-02-15T15:57:58;4.90;89.80
25871;DHT22;13689;48.590;7.752;2023-02-15T16:00:43;4.80;90.00
25871;DHT22;13689;48.590;7.752;2023-02-15T16:03:20;4.80;90.20
25871;DHT22;13689;48.590;7.752;2023-02-15T16:05:46;4.70;90.30
25871;DHT22;13689;48.590;7.752;2023-02-15T16:08:11;4.70;90.30
25871;DHT22;13689;48.590;7.752;2023-02-15T16:10:37;4.60;90.40
25871;DHT22;13689;48.590;7.752;2023-02-15T16:13:05;4.50;90.60
25871;DHT22;13689;48.590;7.752;2023-02-15T16:15:49;4.50;90.80
25871;DHT22;13689;48.590;7.752;2023-02-15T16:18:19;4.40;90.90
25871;DHT22;13689;48.590;7.752;2023-02-15T16:20:57;4.40;90.90
25871;DHT22;13689;48.590;7.752;2023-02-15T16:28:56;4.30;91.30
25871;DHT22;13689;48.590;7.752;2023-02-15T16:31:22;4.30;91.50
25871;DHT22;13689;48.590;7.752;2023-02-15T16:33:51;4.40;91.50
25871;DHT22;13689;48.590;7.752;2023-02-15T16:36:25;4.30;91.30
25871;DHT22;13689;48.590;7.752;2023-02-15T16:41:28;4.20;91.30
25871;DHT22;13689;48.590;7.752;2023-02-15T16:43:57;4.10;91.40
25871;DHT22;13689;48.590;7.752;2023-02-15T16:46:46;4.10;91.50
25871;DHT22;13689;48.590;7.752;2023-02-15T16:49:20;4.10;91.60
25871;DHT22;13689;48.590;7.752;2023-02-15T16:51:56;4.10;91.60
25871;DHT22;13689;48.590;7.752;2023-02-15T16:54:25;4.00;91.70
25871;DHT22;13689;48.590;7.752;2023-02-15T16:56:52;4.00;91.90
25871;DHT22;13689;48.590;7.752;2023-02-15T16:59:41;4.10;91.90
25871;DHT22;13689;48.590;7.752;2023-02-15T17:02:21;4.00;91.90
25871;DHT22;13689;48.590;7.752;2023-02-15T17:07:33;4.00;92.00
25871;DHT22;13689;48.590;7.752;2023-02-15T17:09:59;4.00;92.10
25871;DHT22;13689;48.590;7.752;2023-02-15T17:15:35;3.90;92.10
25871;DHT22;13689;48.590;7.752;2023-02-15T17:18:22;3.90;92.20
25871;DHT22;13689;48.590;7.752;2023-02-15T17:20:50;3.90;92.40
25871;DHT22;13689;48.590;7.752;2023-02-15T17:23:32;3.90;92.50
25871;DHT22;13689;48.590;7.752;2023-02-15T17:26:01;3.90;92.50
25871;DHT22;13689;48.590;7.752;2023-02-15T17:28:31;3.80;92.70
25871;DHT22;13689;48.590;7.752;2023-02-15T17:30:58;3.90;92.80
25871;DHT22;13689;48.590;7.752;2023-02-15T17:33:25;4.00;93.00
25871;DHT22;13689;48.590;7.752;2023-02-15T17:36:20;4.10;93.00
25871;DHT22;13689;48.590;7.752;2023-02-15T17:41:25;4.30;92.90
25871;DHT22;13689;48.590;7.752;2023-02-15T17:43:51;4.30;93.00
25871;DHT22;13689;48.590;7.752;2023-02-15T17:46:16;4.30;92.60
25871;DHT22;13689;48.590;7.752;2023-02-15T17:48:47;4.30;92.60
25871;DHT22;13689;48.590;7.752;2023-02-15T17:51:14;4.30;92.60
25871;DHT22;13689;48.590;7.752;2023-02-15T17:53:41;4.30;92.50
25871;DHT22;13689;48.590;7.752;2023-02-15T17:56:26;4.30;92.40
25871;DHT22;13689;48.590;7.752;2023-02-15T17:58:52;4.30;92.50
25871;DHT22;13689;48.590;7.752;2023-02-15T18:01:19;4.30;92.50
25871;DHT22;13689;48.590;7.752;2023-02-15T18:04:04;4.40;92.40
25871;DHT22;13689;48.590;7.752;2023-02-15T18:06:49;4.40;92.50
25871;DHT22;13689;48.590;7.752;2023-02-15T18:09:34;4.40;92.50
25871;DHT22;13689;48.590;7.752;2023-02-15T18:12:21;4.40;92.50
25871;DHT22;13689;48.590;7.752;2023-02-15T18:14:48;4.50;92.50
25871;DHT22;13689;48.590;7.752;2023-02-15T18:17:15;4.50;92.40
25871;DHT22;13689;48.590;7.752;2023-02-15T18:19:43;4.50;92.30
25871;DHT22;13689;48.590;7.752;2023-02-15T18:22:10;4.50;92.30
25871;DHT22;13689;48.590;7.752;2023-02-15T18:24:35;4.50;92.30
25871;DHT22;13689;48.590;7.752;2023-02-15T18:27:03;4.50;92.30
25871;DHT22;13689;48.590;7.752;2023-02-15T18:29:28;4.50;92.30
25871;DHT22;13689;48.590;7.752;2023-02-15T18:31:55;4.50;92.30
25871;DHT22;13689;48.590;7.752;2023-02-15T18:34:31;4.50;92.30
25871;DHT22;13689;48.590;7.752;2023-02-15T18:36:59;4.50;92.30
25871;DHT22;13689;48.590;7.752;2023-02-15T18:39:36;4.60;92.40
25871;DHT22;13689;48.590;7.752;2023-02-15T18:42:03;4.60;92.30
25871;DHT22;13689;48.590;7.752;2023-02-15T18:44:29;4.60;92.30
25871;DHT22;13689;48.590;7.752;2023-02-15T18:46:55;4.60;92.30
25871;DHT22;13689;48.590;7.752;2023-02-15T18:49:21;4.60;92.30
25871;DHT22;13689;48.590;7.752;2023-02-15T18:51:46;4.60;92.20
25871;DHT22;13689;48.590;7.752;2023-02-15T18:54:23;4.60;92.20
25871;DHT22;13689;48.590;7.752;2023-02-15T18:56:54;4.60;92.20
25871;DHT22;13689;48.590;7.752;2023-02-15T18:59:21;4.60;92.30
25871;DHT22;13689;48.590;7.752;2023-02-15T19:01:47;4.60;92.30
25871;DHT22;13689;48.590;7.752;2023-02-15T19:04:13;4.60;92.40
25871;DHT22;13689;48.590;7.752;2023-02-15T19:06:45;4.60;92.20
25871;DHT22;13689;48.590;7.752;2023-02-15T19:09:16;4.60;92.20
25871;DHT22;13689;48.590;7.752;2023-02-15T19:11:50;4.60;92.20
25871;DHT22;13689;48.590;7.752;2023-02-15T19:14:37;4.60;92.20
25871;DHT22;13689;48.590;7.752;2023-02-15T19:17:02;4.60;92.20
25871;DHT22;13689;48.590;7.752;2023-02-15T19:19:28;4.50;92.10
25871;DHT22;13689;48.590;7.752;2023-02-15T19:21:54;4.60;92.10
25871;DHT22;13689;48.590;7.752;2023-02-15T19:24:38;4.50;92.10
25871;DHT22;13689;48.590;7.752;2023-02-15T19:27:36;4.50;92.10
25871;DHT22;13689;48.590;7.752;2023-02-15T19:30:14;4.50;92.10
25871;DHT22;13689;48.590;7.752;2023-02-15T19:32:41;4.50;92.10
25871;DHT22;13689;48.590;7.752;2023-02-15T19:35:15;4.50;92.10